Ilyas Araz — TCAS9 — position and weather

sailwx.info

Track history (hours):
 
Tides and Currents Weather Stations Pressure Air Temp Water Temp Dewpoint Dewpoint Depression Visibility Wind Speed Wind Dir Waves Ship Positions

Ilyas Araz

Last reported at 2014-Nov-22 04:15 UTC. Time now 2014-Nov-23 20:06 UTC.
Position N 41°15' E 029°20'.

Length 64 m; draft 5.4 m.

Type: Cargo ship. MMSI: 271002108.

Date/timePositionNaut miles runAvg speedWind from/ knotsBaromVisibWave heightAir tempDewpointWater temp
2014-Nov-22 04:15N 41°15' E 029°20'6 7.0
2014-Nov-22 03:21N 41°16' E 029°29'  
2014-Nov-12 18:17N 41°17' E 029°39'6 8.7
2014-Nov-12 17:33N 41°17' E 029°30'29 6.6
2014-Nov-12 13:12N 40°59' E 029°00'6 8.4
2014-Nov-12 12:32N 40°55' E 029°05'6 5.4
2014-Nov-12 11:30N 40°53' E 029°12'0 0.0
2014-Nov-12 10:24N 40°53' E 029°12'0 0.0
2014-Nov-12 09:30N 40°53' E 029°12'0 0.0
2014-Nov-12 08:30N 40°53' E 029°12'0 0.0
2014-Nov-12 07:24N 40°53' E 029°12'0 0.0
2014-Nov-12 06:24N 40°53' E 029°12'0 0.0
2014-Nov-12 05:30N 40°53' E 029°12'0 0.0
2014-Nov-12 04:30N 40°53' E 029°12'  
Track history (hours):
 
Tides and Currents Weather Stations Pressure Air Temp Water Temp Dewpoint Dewpoint Depression Visibility Wind Speed Wind Dir Waves Ship Positions

Ilyas Araz

Last reported at 2014-Nov-22 04:15 UTC. Time now 2014-Nov-23 20:06 UTC.
Position N 41°15' E 029°20'.

Length 64 m; draft 5.4 m.

Type: Cargo ship. MMSI: 271002108.

Date/timePositionNaut miles runAvg speedWind from/ knotsBaromVisibWave heightAir tempDewpointWater temp
2014-Nov-22 04:15N 41°15' E 029°20'6 7.0
2014-Nov-22 03:21N 41°16' E 029°29'  
2014-Nov-12 18:17N 41°17' E 029°39'6 8.7
2014-Nov-12 17:33N 41°17' E 029°30'29 6.6
2014-Nov-12 13:12N 40°59' E 029°00'6 8.4
2014-Nov-12 12:32N 40°55' E 029°05'6 5.4
2014-Nov-12 11:30N 40°53' E 029°12'0 0.0
2014-Nov-12 10:24N 40°53' E 029°12'0 0.0
2014-Nov-12 09:30N 40°53' E 029°12'0 0.0
2014-Nov-12 08:30N 40°53' E 029°12'0 0.0
2014-Nov-12 07:24N 40°53' E 029°12'0 0.0
2014-Nov-12 06:24N 40°53' E 029°12'0 0.0
2014-Nov-12 05:30N 40°53' E 029°12'0 0.0
2014-Nov-12 04:30N 40°53' E 029°12'  

Dump ship's entire track history